地図

経路データ

SID SEASON NUMBER BASIN SUBBASIN NAME ISO_TIME NATURE LAT LON WMO_WIND WMO_PRES WMO_AGENCY TRACK_TYPE DIST2LAND LANDFALL IFLAG USA_AGENCY USA_ATCF_ID USA_LAT USA_LON USA_RECORD USA_STATUS USA_WIND USA_PRES USA_SSHS USA_R34_NE USA_R34_SE USA_R34_SW USA_R34_NW USA_R50_NE USA_R50_SE USA_R50_SW USA_R50_NW USA_R64_NE USA_R64_SE USA_R64_SW USA_R64_NW USA_POCI USA_ROCI USA_RMW USA_EYE TOKYO_LAT TOKYO_LON TOKYO_GRADE TOKYO_WIND TOKYO_PRES TOKYO_R50_DIR TOKYO_R50_LONG TOKYO_R50_SHORT TOKYO_R30_DIR TOKYO_R30_LONG TOKYO_R30_SHORT TOKYO_LAND CMA_LAT CMA_LON CMA_CAT CMA_WIND CMA_PRES HKO_LAT HKO_LON HKO_CAT HKO_WIND HKO_PRES NEWDELHI_LAT NEWDELHI_LON NEWDELHI_GRADE NEWDELHI_WIND NEWDELHI_PRES NEWDELHI_CI NEWDELHI_DP NEWDELHI_POCI REUNION_LAT REUNION_LON REUNION_TYPE REUNION_WIND REUNION_PRES REUNION_TNUM REUNION_CI REUNION_RMW REUNION_R34_NE REUNION_R34_SE REUNION_R34_SW REUNION_R34_NW REUNION_R50_NE REUNION_R50_SE REUNION_R50_SW REUNION_R50_NW REUNION_R64_NE REUNION_R64_SE REUNION_R64_SW REUNION_R64_NW BOM_LAT BOM_LON BOM_TYPE BOM_WIND BOM_PRES BOM_TNUM BOM_CI BOM_RMW BOM_R34_NE BOM_R34_SE BOM_R34_SW BOM_R34_NW BOM_R50_NE BOM_R50_SE BOM_R50_SW BOM_R50_NW BOM_R64_NE BOM_R64_SE BOM_R64_SW BOM_R64_NW BOM_ROCI BOM_POCI BOM_EYE BOM_POS_METHOD BOM_PRES_METHOD NADI_LAT NADI_LON NADI_CAT NADI_WIND NADI_PRES WELLINGTON_LAT WELLINGTON_LON WELLINGTON_WIND WELLINGTON_PRES DS824_LAT DS824_LON DS824_STAGE DS824_WIND DS824_PRES TD9636_LAT TD9636_LON TD9636_STAGE TD9636_WIND TD9636_PRES TD9635_LAT TD9635_LON TD9635_WIND TD9635_PRES TD9635_ROCI NEUMANN_LAT NEUMANN_LON NEUMANN_CLASS NEUMANN_WIND NEUMANN_PRES MLC_LAT MLC_LON MLC_CLASS MLC_WIND MLC_PRES USA_GUST BOM_GUST BOM_GUST_PER REUNION_GUST REUNION_GUST_PER USA_SEAHGT USA_SEARAD_NE USA_SEARAD_SE USA_SEARAD_SW USA_SEARAD_NW STORM_SPEED STORM_DIR
1987016S13066 1987 7 SI MM ALININA 1987-01-16 06:00:00 TS -13.0000 66.0000 20 1003 reunion main 1188 1188 _____O________ -1 -13.0000 66.0000 2 20 1003 1.50000 1.50000 7 136
1987016S13066 1987 7 SI MM ALININA 1987-01-16 09:00:00 TS -13.2500 66.2499 main 1182 1182 _____P________ -1 -13.2500 66.2499 2 22 1001 7 133
1987016S13066 1987 7 SI MM ALININA 1987-01-16 12:00:00 TS -13.4500 66.5000 24 1000 reunion main 1199 1192 O____O____O_O_ jtwc_sh SH091987 -13.4000 66.5000 35 0 -13.5000 66.5000 2 24 1000 2.00000 2.00000 -13.4000 66.5000 2 35 -13.4000 66.5000 TC 35 6 134
1987016S13066 1987 7 SI MM ALININA 1987-01-16 15:00:00 TS -13.6942 66.7241 main 1195 1195 P____P____P_P_ SH091987 -13.6475 66.7049 40 0 -13.7500 66.7501 2 26 998 -13.6758 66.7106 2 38 -13.6475 66.7049 TC 40 6 139
1987016S13066 1987 7 SI MM ALININA 1987-01-16 18:00:00 TS -13.9403 66.9324 28 997 reunion main 1198 1192 O____O____P_O_ jtwc_sh SH091987 -13.9000 66.9000 45 0 -14.0000 67.0000 2 28 997 2.50000 2.50000 -13.9412 66.9072 2 42 -13.9000 66.9000 TC 45 6 142
1987016S13066 1987 7 SI MM ALININA 1987-01-16 21:00:00 TS -14.1877 67.1176 main 1196 1193 P____P____P_P_ SH091987 -14.1575 67.0725 47 0 -14.2500 67.2501 2 36 994 -14.1860 67.0752 2 46 -14.1575 67.0725 TC 47 6 146
1987016S13066 1987 7 SI MM ALININA 1987-01-17 00:00:00 TS -14.4250 67.2750 44 991 reunion main 1202 1190 O____O____O_O_ jtwc_sh SH091987 -14.4000 67.2000 50 0 -14.5000 67.5000 3 44 991 3.00000 3.00000 -14.4000 67.2000 2 50 -14.4000 67.2000 TC 50 5 150
1987016S13066 1987 7 SI MM ALININA 1987-01-17 03:00:00 TS -14.6434 67.3854 main 1199 1187 P____P____P_P_ SH091987 -14.6150 67.2501 52 0 -14.7650 67.7650 3 44 987 -14.5786 67.2766 2 52 -14.6150 67.2501 TC 52 5 154
1987016S13066 1987 7 SI MM ALININA 1987-01-17 06:00:00 TS -14.8349 67.4848 44 984 reunion main 1196 1190 O____O____P_O_ jtwc_sh SH091987 -14.8000 67.3000 55 0 -15.0000 68.0000 3 44 984 3.50000 3.50000 -14.7395 67.3392 2 55 -14.8000 67.3000 TC 55 4 147
1987016S13066 1987 7 SI MM ALININA 1987-01-17 09:00:00 TS -14.9720 67.6020 main 1194 1194 P____P____P_P_ SH091987 -14.9425 67.4126 57 0 -15.0974 68.1504 3 44 984 -14.9056 67.4323 2 57 -14.9425 67.4126 TC 57 4 139
1987016S13066 1987 7 SI MM ALININA 1987-01-17 12:00:00 TS -15.1500 67.7750 44 984 reunion main 1207 1202 O____O____O_O_ jtwc_sh SH091987 -15.1000 67.6000 60 0 -15.3000 68.3000 3 44 984 3.50000 3.50000 -15.1000 67.6000 2 60 -15.1000 67.6000 TC 60 7 139
1987016S13066 1987 7 SI MM ALININA 1987-01-17 15:00:00 TS -15.4610 68.0481 main 1205 1205 P____P____P_P_ SH091987 -15.3200 67.8775 62 0 -15.8776 68.5570 3 44 984 -15.3264 67.8805 2 62 -15.3200 67.8775 TC 62 9 141
1987016S13066 1987 7 SI MM ALININA 1987-01-17 18:00:00 TS -15.8250 68.3500 44 984 reunion main 1228 1218 O____O____O_O_ jtwc_sh SH091987 -15.6000 68.2000 65 1 -16.5000 68.8000 3 44 984 3.50000 3.50000 -15.6000 68.2000 3 65 -15.6000 68.2000 TC 65 9 141
1987016S13066 1987 7 SI MM ALININA 1987-01-17 21:00:00 TS -16.1454 68.6299 main 1233 1228 P____P____P_P_ SH091987 -15.9201 68.5374 67 1 -16.8224 68.9228 3 48 980 -15.9191 68.5219 3 67 -15.9201 68.5374 TC 67 8 145
1987016S13066 1987 7 SI MM ALININA 1987-01-18 00:00:00 TS -16.5000 68.8500 52 976 reunion main 1245 1229 O____O____O_O_ jtwc_sh SH091987 -16.3000 68.8000 70 1 -17.1000 69.0000 3 52 976 4.00000 4.00000 -16.3000 68.8000 4 70 -16.3000 68.8000 TC 70 9 159
1987016S13066 1987 7 SI MM ALININA 1987-01-18 03:00:00 TS -16.9332 68.9479 main 1229 1222 P____P____P_P_ SH091987 -16.7199 68.8803 72 1 -17.5350 69.1074 3 52 976 -16.7578 68.9235 4 70 -16.7199 68.8803 TC 72 9 172
1987016S13066 1987 7 SI MM ALININA 1987-01-18 06:00:00 TS -17.4180 68.9905 52 976 reunion main 1222 1206 O____O____P_O_ jtwc_sh SH091987 -17.2000 68.9000 75 1 -18.0000 69.2000 3 52 976 4.00000 4.00000 -17.2721 68.9622 4 70 -17.2000 68.9000 TC 75 10 175
1987016S13066 1987 7 SI MM ALININA 1987-01-18 09:00:00 TS -17.9325 69.0276 main 1206 1201 P____P____P_P_ SH091987 -17.7574 68.9478 72 1 -18.4149 69.2203 3 48 980 -17.8003 68.9946 4 70 -17.7574 68.9478 TC 72 10 171
1987016S13066 1987 7 SI MM ALININA 1987-01-18 12:00:00 TS -18.4250 69.1500 44 984 reunion main 1214 1210 O____O____O_O_ jtwc_sh SH091987 -18.3000 69.1000 70 1 -18.8000 69.3000 3 44 984 3.50000 3.50000 -18.3000 69.1000 4 70 -18.3000 69.1000 TC 70 10 154
1987016S13066 1987 7 SI MM ALININA 1987-01-18 15:00:00 TS -18.8374 69.4837 main 1237 1235 P____P____P_P_ SH091987 -18.7302 69.4623 67 1 -19.1651 69.5698 3 40 987 -18.7240 69.4403 4 67 -18.7302 69.4623 TC 67 11 138
1987016S13066 1987 7 SI MM ALININA 1987-01-18 18:00:00 TS -19.2028 69.8889 36 991 reunion main 1271 1271 O____O____P_O_ jtwc_sh SH091987 -19.1000 69.9000 65 1 -19.5000 69.9000 3 36 991 3.00000 3.00000 -19.1113 69.8557 4 65 -19.1000 69.9000 TC 65 10 134
1987016S13066 1987 7 SI MM ALININA 1987-01-18 21:00:00 TS -19.5457 70.2559 main 1309 1308 P____P____P_P_ SH091987 -19.4651 70.3024 62 0 -19.7849 70.1503 3 36 991 -19.4678 70.2684 4 62 -19.4651 70.3024 TC 62 9 137
1987016S13066 1987 7 SI MM ALININA 1987-01-19 00:00:00 TS -19.8750 70.5500 36 991 reunion main 1336 1336 O____O____O_O_ jtwc_sh SH091987 -19.8000 70.6000 60 0 -20.1000 70.4000 3 36 991 3.00000 3.00000 -19.8000 70.6000 2 60 -19.8000 70.6000 TC 60 8 148
1987016S13066 1987 7 SI MM ALININA 1987-01-19 03:00:00 TS -20.2222 70.7095 main 1345 1344 P____P____P_P_ SH091987 -20.1074 70.6953 57 0 -20.5651 70.7146 3 36 991 -20.1088 70.7326 2 57 -20.1074 70.6953 TC 57 7 161
1987016S13066 1987 7 SI MM ALININA 1987-01-19 06:00:00 TS -20.5498 70.7942 36 991 reunion main 1354 1354 O____O____P_O_ jtwc_sh SH091987 -20.4000 70.7000 55 0 -21.0000 71.0000 3 36 991 3.00000 3.00000 -20.3994 70.7767 2 55 -20.4000 70.7000 TC 55 6 167
1987016S13066 1987 7 SI MM ALININA 1987-01-19 09:00:00 TS -20.8244 70.8620 main 1364 1364 P____P____P_P_ SH091987 -20.6925 70.7351 52 0 -21.2224 71.1952 3 36 991 -20.6903 70.7824 2 52 -20.6925 70.7351 TC 52 6 167
1987016S13066 1987 7 SI MM ALININA 1987-01-19 12:00:00 TS -21.1000 70.9250 36 991 reunion main 1364 1364 O____O____O_O_ jtwc_sh SH091987 -21.0000 70.8000 50 0 -21.4000 71.3000 3 36 991 3.00000 3.00000 -21.0000 70.8000 2 50 -21.0000 70.8000 TC 50 6 165
1987016S13066 1987 7 SI MM ALININA 1987-01-19 15:00:00 TS -21.4312 71.0375 main 1376 1376 P____P____P_P_ SH091987 -21.3350 70.9424 45 0 -21.6850 71.3301 3 36 991 -21.3698 70.9352 2 46 -21.3350 70.9424 TC 45 7 163
1987016S13066 1987 7 SI MM ALININA 1987-01-19 18:00:00 TS -21.7894 71.1466 36 991 reunion main 1389 1389 O____O____P_O_ jtwc_sh SH091987 -21.7000 71.1000 40 0 -22.0000 71.3000 3 36 991 3.00000 3.00000 -21.7577 71.0864 2 42 -21.7000 71.1000 TC 40 8 166
1987016S13066 1987 7 SI MM ALININA 1987-01-19 21:00:00 TS -22.1604 71.2361 main 1404 1404 P____P____P_P_ SH091987 -22.0925 71.2299 37 0 -22.3150 71.2650 3 36 991 -22.1417 71.2195 2 38 -22.0925 71.2299 TC 37 7 171
1987016S13066 1987 7 SI MM ALININA 1987-01-20 00:00:00 TS -22.5250 71.2750 36 991 reunion main 1418 1418 O____O____O_O_ jtwc_sh SH091987 -22.5000 71.3000 35 0 -22.6000 71.2000 3 36 991 3.00000 3.00000 -22.5000 71.3000 2 35 -22.5000 71.3000 TC 35 7 178
1987016S13066 1987 7 SI MM ALININA 1987-01-20 03:00:00 TS -22.8843 71.2631 main 1424 1416 P____P____P_P_ SH091987 -22.9375 71.2802 35 0 -22.8223 71.1523 3 36 991 -22.8398 71.3397 2 35 -22.9375 71.2802 TC 35 7 188
1987016S13066 1987 7 SI MM ALININA 1987-01-20 06:00:00 TS -23.1867 71.1788 36 991 reunion main 1420 1404 O____O____P_O_ jtwc_sh SH091987 -23.3000 71.2000 35 0 -23.0000 71.0000 3 36 991 3.00000 3.00000 -23.1466 71.3154 2 35 -23.3000 71.2000 TC 35 6 203
1987016S13066 1987 7 SI MM ALININA 1987-01-20 09:00:00 TS -23.3919 71.0340 main 1404 1387 P____P____P_P_ SH091987 -23.5024 71.1449 35 0 -23.1577 70.6376 3 32 994 -23.4052 71.2084 2 35 -23.5024 71.1449 TC 35 5 226
1987016S13066 1987 7 SI MM ALININA 1987-01-20 12:00:00 TS -23.5250 70.8000 28 997 reunion main 1387 1359 O____O____O_O_ jtwc_sh SH091987 -23.6000 71.0000 35 0 -23.3000 70.2000 2 28 997 2.50000 2.50000 -23.6000 71.0000 2 35 -23.6000 71.0000 TC 35 5 245
1987016S13066 1987 7 SI MM ALININA 1987-01-20 15:00:00 TS -23.6205 70.4916 main 1359 1322 P____P____P_P_ SH091987 -23.6649 70.7099 37 0 -23.4499 69.8349 2 28 997 -23.7022 70.7114 2 37 -23.6649 70.7099 TC 37 7 256
1987016S13066 1987 7 SI MM ALININA 1987-01-20 18:00:00 MX -23.6861 70.1053 28 997 reunion main 1322 1283 O____O____P_O_ jtwc_sh SH091987 -23.7000 70.3000 40 0 -23.6000 69.5000 5 28 997 2.50000 2.50000 -23.7444 70.3212 2 40 -23.7000 70.3000 TC 40 7 260
1987016S13066 1987 7 SI MM ALININA 1987-01-20 21:00:00 MX -23.7534 69.6875 main 1286 1237 P____P____P_P_ SH091987 -23.7423 69.8448 42 0 -23.7647 69.2150 5 32 994 -23.7644 69.8455 2 42 -23.7423 69.8448 TC 42 8 260
1987016S13066 1987 7 SI MM ALININA 1987-01-21 00:00:00 MX -23.8250 69.2000 36 991 reunion main 1237 1192 O____O____O_O_ jtwc_sh SH091987 -23.8000 69.3000 45 0 -23.9000 68.9000 5 36 991 3.00000 3.00000 -23.8000 69.3000 2 45 -23.8000 69.3000 TC 45 10 261
1987016S13066 1987 7 SI MM ALININA 1987-01-21 03:00:00 MX -23.9036 68.6393 main 1182 1137 P____P____P_P_ SH091987 -23.8850 68.6724 45 0 -23.9647 68.5023 5 36 991 -23.8795 68.7100 2 46 -23.8850 68.6724 TC 45 11 261
1987016S13066 1987 7 SI MM ALININA 1987-01-21 06:00:00 MX -23.9958 68.0147 36 991 reunion main 1128 1075 O____O____P_O_ jtwc_sh SH091987 -24.0000 68.0000 45 0 -24.0000 68.0000 5 36 991 3.00000 3.00000 -23.9831 68.0589 2 47 -24.0000 68.0000 TC 45 12 260
1987016S13066 1987 7 SI MM ALININA 1987-01-21 09:00:00 MX -24.1060 67.3719 main 1075 1013 P____P____P_P_ SH091987 -24.1347 67.3498 47 0 -24.0346 67.4096 5 36 991 -24.1200 67.3784 2 48 -24.1347 67.3498 TC 47 12 258
1987016S13066 1987 7 SI MM ALININA 1987-01-21 12:00:00 MX -24.2500 66.7000 36 991 reunion main 1013 957 O____O____O_O_ jtwc_sh SH091987 -24.3000 66.7000 50 0 -24.1000 66.7000 5 36 991 3.00000 3.00000 -24.3000 66.7000 2 50 -24.3000 66.7000 TC 50 13 256
1987016S13066 1987 7 SI MM ALININA 1987-01-21 15:00:00 MX -24.4117 65.9910 main 957 904 P____P____P_P_ SH091987 -24.4698 66.0421 52 0 -24.2277 65.8651 5 36 991 -24.4795 66.0148 2 52 -24.4698 66.0421 TC 52 13 254
1987016S13066 1987 7 SI MM ALININA 1987-01-21 18:00:00 MX -24.6271 65.2862 36 991 reunion main 904 861 O____O____P_O_ jtwc_sh SH091987 -24.7000 65.4000 55 0 -24.4000 65.0000 5 36 991 3.00000 3.00000 -24.7083 65.3447 2 55 -24.7000 65.4000 TC 55 13 249
1987016S13066 1987 7 SI MM ALININA 1987-01-21 21:00:00 MX -24.8838 64.6103 main 861 839 P____P____P_P_ SH091987 -24.9973 64.7772 57 0 -24.5327 64.1597 5 36 991 -25.0079 64.7272 2 57 -24.9973 64.7772 TC 57 13 241
1987016S13066 1987 7 SI MM ALININA 1987-01-22 00:00:00 MX -25.2500 64.0250 36 991 reunion main 831 829 O____O____O_O_ jtwc_sh SH091987 -25.4000 64.2000 60 0 -24.8000 63.5000 5 36 991 3.00000 3.00000 -25.4000 64.2000 2 60 -25.4000 64.2000 TC 60 13 229
1987016S13066 1987 7 SI MM ALININA 1987-01-22 03:00:00 MX -25.7500 63.5204 main 837 830 P____P____P_P_ SH091987 -25.9051 63.6256 62 0 -25.3169 63.1376 5 36 991 -25.8730 63.6927 2 60 -25.9051 63.6256 TC 62 14 215
1987016S13066 1987 7 SI MM ALININA 1987-01-22 06:00:00 MX -26.3603 63.1729 36 991 reunion main 865 858 O____O____P_O_ jtwc_sh SH091987 -26.5000 63.2000 65 1 -26.0000 63.0000 5 36 991 3.00000 3.00000 -26.4410 63.2917 2 60 -26.5000 63.2000 TC 65 14 201
1987016S13066 1987 7 SI MM ALININA 1987-01-22 09:00:00 MX -27.0138 62.9807 main 904 904 P____P____P_P_ SH091987 -27.1271 62.9875 62 0 -26.7123 62.9033 5 32 994 -27.0885 63.0444 2 60 -27.1271 62.9875 TC 62 14 186
1987016S13066 1987 7 SI MM ALININA 1987-01-22 12:00:00 MX -27.7250 63.0000 28 997 reunion main 967 967 O____O____O_O_ jtwc_sh SH091987 -27.8000 63.0000 60 0 -27.5000 63.0000 5 28 997 2.50000 2.50000 -27.8000 63.0000 2 60 -27.8000 63.0000 TC 60 14 173
1987016S13066 1987 7 SI MM ALININA 1987-01-22 15:00:00 MX -28.4369 63.1774 main 1043 1043 P____P____P_P_ SH091987 -28.4622 63.1459 57 0 -28.3198 63.3030 5 28 997 -28.5035 63.1148 2 58 -28.4622 63.1459 TC 57 16 162
1987016S13066 1987 7 SI MM ALININA 1987-01-22 18:00:00 MX -29.2171 63.5614 28 997 reunion main 1139 1139 O____O____P_O_ jtwc_sh SH091987 -29.2000 63.5000 55 0 -29.2000 63.8000 5 28 997 2.50000 2.50000 -29.2684 63.4458 2 57 -29.2000 63.5000 TC 55 18 154
1987016S13066 1987 7 SI MM ALININA 1987-01-22 21:00:00 MX -30.0857 64.0887 main 1249 1249 P____P____P_P_ SH091987 -30.0546 64.0037 55 0 -30.1344 64.3689 5 28 997 -30.0993 63.9785 2 56 -30.0546 64.0037 TC 55 21 149
1987016S13066 1987 7 SI MM ALININA 1987-01-23 00:00:00 MX -31.0250 64.8000 28 997 reunion main 1370 1370 O____O____O_O_ jtwc_sh SH091987 -31.0000 64.7000 55 0 -31.1000 65.1000 5 28 997 2.50000 2.50000 -31.0000 64.7000 2 55 -31.0000 64.7000 TC 55 23 145
1987016S13066 1987 7 SI MM ALININA 1987-01-23 03:00:00 MX -32.0120 65.6336 main 1505 1505 P____P____P_P_ SH091987 -31.9765 65.5050 55 0 -32.0953 66.0115 5 28 997 -31.9996 65.5131 2 55 -31.9765 65.5050 TC 55 25 142
1987016S13066 1987 7 SI MM ALININA 1987-01-23 06:00:00 MX -33.0145 66.6050 28 997 reunion main 1650 1649 O____O____P_O_ jtwc_sh SH091987 -33.0000 66.5000 55 0 -33.0000 67.0000 5 28 997 2.50000 2.50000 -33.0545 66.5188 2 55 -33.0000 66.5000 TC 55 27 139
1987016S13066 1987 7 SI MM ALININA 1987-01-23 09:00:00 MX -34.0301 67.7072 main 1649 1534 P____P____P_P_ SH091987 -34.0715 67.6609 55 0 -33.7106 67.9244 5 26 998 -34.1070 67.6910 2 55 -34.0715 67.6609 TC 55 28 136
1987016S13066 1987 7 SI MM ALININA 1987-01-23 12:00:00 TS -35.0385 68.9846 24 1000 reunion main 1534 1438 O____O____O_O_ jtwc_sh SH091987 -35.1000 69.0000 55 0 -34.3000 68.8000 6 24 1000 2.00000 2.00000 -35.1000 69.0000 2 55 -35.1000 69.0000 TC 55 30 131
1987016S13066 1987 7 SI MM ALININA 1987-01-23 15:00:00 TS -35.9980 70.4434 main 1428 1354 P_________P_P_ SH091987 -36.0016 70.4574 55 0 6 -35.9908 70.4155 2 55 -36.0016 70.4574 TC 55 30 126
1987016S13066 1987 7 SI MM ALININA 1987-01-23 18:00:00 TS -36.7964 71.9722 main 1356 1305 O_________P_O_ jtwc_sh SH091987 -36.8000 72.0000 55 0 -36.7893 71.9166 2 55 -36.8000 72.0000 TC 55 29 122
1987016S13066 1987 7 SI MM ALININA 1987-01-23 21:00:00 TS -37.5217 73.5264 main 1307 1263 P_________P_P_ SH091987 -37.5235 73.5473 55 0 -37.5180 73.4846 2 55 -37.5235 73.5473 TC 55 28 120
1987016S13066 1987 7 SI MM ALININA 1987-01-24 00:00:00 TS -38.2000 75.1000 main 1266 O_________O_O_ jtwc_sh SH091987 -38.2000 75.1000 55 0 -38.2000 75.1000 2 55 -38.2000 75.1000 TC 55 28 119

IBTrACS Databaseについて

本データベースは、米国NOAAが公開する1842年以降の世界の熱帯低気圧のベストトラックデータアーカイブInternational Best Track Archive for Climate Stewardship (IBTrACS)を、ウェブで閲覧しやすい形式に変換したものです。

最終更新日:2021-12-06